sensor_id;sensor_type;location;lat;lon;timestamp;temperature;humidity
21244;DHT22;10780;50.942;4.028;2022-09-20T00:01:09;12.10;99.90
21244;DHT22;10780;50.942;4.028;2022-09-20T00:03:42;12.00;99.90
21244;DHT22;10780;50.942;4.028;2022-09-20T00:06:12;12.10;99.90
21244;DHT22;10780;50.942;4.028;2022-09-20T00:08:38;12.10;99.90
21244;DHT22;10780;50.942;4.028;2022-09-20T00:11:06;12.20;99.90
21244;DHT22;10780;50.942;4.028;2022-09-20T00:13:33;12.10;99.90
21244;DHT22;10780;50.942;4.028;2022-09-20T00:16:04;12.00;99.90
21244;DHT22;10780;50.942;4.028;2022-09-20T00:18:30;11.90;99.90
21244;DHT22;10780;50.942;4.028;2022-09-20T00:20:56;11.80;99.90
21244;DHT22;10780;50.942;4.028;2022-09-20T00:23:21;11.80;99.90
21244;DHT22;10780;50.942;4.028;2022-09-20T00:25:55;11.70;99.90
21244;DHT22;10780;50.942;4.028;2022-09-20T00:28:21;11.70;99.90
21244;DHT22;10780;50.942;4.028;2022-09-20T00:30:47;11.70;99.90
21244;DHT22;10780;50.942;4.028;2022-09-20T00:33:13;11.80;99.90
21244;DHT22;10780;50.942;4.028;2022-09-20T00:35:42;11.80;99.90
21244;DHT22;10780;50.942;4.028;2022-09-20T00:38:08;11.80;99.90
21244;DHT22;10780;50.942;4.028;2022-09-20T00:40:35;11.90;99.90
21244;DHT22;10780;50.942;4.028;2022-09-20T00:43:00;11.90;99.90
21244;DHT22;10780;50.942;4.028;2022-09-20T00:45:28;11.80;99.90
21244;DHT22;10780;50.942;4.028;2022-09-20T00:48:12;11.80;99.90
21244;DHT22;10780;50.942;4.028;2022-09-20T00:50:58;11.80;99.90
21244;DHT22;10780;50.942;4.028;2022-09-20T00:53:29;11.80;99.90
21244;DHT22;10780;50.942;4.028;2022-09-20T00:56:02;11.80;99.90
21244;DHT22;10780;50.942;4.028;2022-09-20T00:58:30;11.70;99.90
21244;DHT22;10780;50.942;4.028;2022-09-20T01:00:57;11.70;99.90
21244;DHT22;10780;50.942;4.028;2022-09-20T01:03:27;11.70;99.90
21244;DHT22;10780;50.942;4.028;2022-09-20T01:05:55;11.70;99.90
21244;DHT22;10780;50.942;4.028;2022-09-20T01:08:22;11.60;99.90
21244;DHT22;10780;50.942;4.028;2022-09-20T01:10:50;11.60;99.90
21244;DHT22;10780;50.942;4.028;2022-09-20T01:13:16;11.70;99.90
21244;DHT22;10780;50.942;4.028;2022-09-20T01:15:44;11.70;99.90
21244;DHT22;10780;50.942;4.028;2022-09-20T01:18:10;11.60;99.90
21244;DHT22;10780;50.942;4.028;2022-09-20T01:20:39;11.60;99.90
21244;DHT22;10780;50.942;4.028;2022-09-20T01:26:09;11.50;99.90
21244;DHT22;10780;50.942;4.028;2022-09-20T01:28:40;11.60;99.90
21244;DHT22;10780;50.942;4.028;2022-09-20T01:31:16;11.70;99.90
21244;DHT22;10780;50.942;4.028;2022-09-20T01:34:00;11.80;99.90
21244;DHT22;10780;50.942;4.028;2022-09-20T01:42:15;11.70;99.90
21244;DHT22;10780;50.942;4.028;2022-09-20T01:50:35;11.70;99.90
21244;DHT22;10780;50.942;4.028;2022-09-20T02:07:11;12.30;99.90
21244;DHT22;10780;50.942;4.028;2022-09-20T02:09:58;12.20;99.90
21244;DHT22;10780;50.942;4.028;2022-09-20T02:12:52;12.10;99.90
21244;DHT22;10780;50.942;4.028;2022-09-20T02:26:56;12.40;99.90
21244;DHT22;10780;50.942;4.028;2022-09-20T02:30:12;12.30;99.90
21244;DHT22;10780;50.942;4.028;2022-09-20T02:33:10;12.30;99.90
21244;DHT22;10780;50.942;4.028;2022-09-20T02:44:23;12.10;99.90
21244;DHT22;10780;50.942;4.028;2022-09-20T02:49:44;12.20;99.90
21244;DHT22;10780;50.942;4.028;2022-09-20T02:52:34;12.20;99.90
21244;DHT22;10780;50.942;4.028;2022-09-20T02:55:12;12.10;99.90
21244;DHT22;10780;50.942;4.028;2022-09-20T03:00:28;12.10;99.90
21244;DHT22;10780;50.942;4.028;2022-09-20T03:11:15;12.20;99.90
21244;DHT22;10780;50.942;4.028;2022-09-20T03:13:58;12.10;99.90
21244;DHT22;10780;50.942;4.028;2022-09-20T03:19:50;12.00;99.90
21244;DHT22;10780;50.942;4.028;2022-09-20T03:25:34;11.70;99.90
21244;DHT22;10780;50.942;4.028;2022-09-20T03:31:02;11.70;99.90
21244;DHT22;10780;50.942;4.028;2022-09-20T03:42:21;11.80;99.90
21244;DHT22;10780;50.942;4.028;2022-09-20T04:01:45;11.30;99.90
21244;DHT22;10780;50.942;4.028;2022-09-20T04:04:23;11.40;99.90
21244;DHT22;10780;50.942;4.028;2022-09-20T04:12:54;11.20;99.90
21244;DHT22;10780;50.942;4.028;2022-09-20T04:16:02;11.20;99.90
21244;DHT22;10780;50.942;4.028;2022-09-20T04:21:35;11.20;99.90
21244;DHT22;10780;50.942;4.028;2022-09-20T04:24:17;11.20;99.90
21244;DHT22;10780;50.942;4.028;2022-09-20T04:26:50;11.20;99.90
21244;DHT22;10780;50.942;4.028;2022-09-20T04:29:37;11.10;99.90
21244;DHT22;10780;50.942;4.028;2022-09-20T04:37:58;10.90;99.90
21244;DHT22;10780;50.942;4.028;2022-09-20T04:41:51;10.90;99.90
21244;DHT22;10780;50.942;4.028;2022-09-20T05:00:21;10.90;99.90
21244;DHT22;10780;50.942;4.028;2022-09-20T05:03:29;10.80;99.90
21244;DHT22;10780;50.942;4.028;2022-09-20T05:06:32;10.80;99.90
21244;DHT22;10780;50.942;4.028;2022-09-20T05:17:19;10.80;99.90
21244;DHT22;10780;50.942;4.028;2022-09-20T05:25:55;11.30;99.90
21244;DHT22;10780;50.942;4.028;2022-09-20T05:28:48;11.40;99.90
21244;DHT22;10780;50.942;4.028;2022-09-20T05:31:40;11.60;99.90
21244;DHT22;10780;50.942;4.028;2022-09-20T05:39:51;11.90;99.90
21244;DHT22;10780;50.942;4.028;2022-09-20T05:42:24;11.90;99.90
21244;DHT22;10780;50.942;4.028;2022-09-20T05:47:43;11.80;99.90
21244;DHT22;10780;50.942;4.028;2022-09-20T05:50:46;11.70;99.90
21244;DHT22;10780;50.942;4.028;2022-09-20T05:56:33;11.80;99.90
21244;DHT22;10780;50.942;4.028;2022-09-20T06:10:04;11.90;99.90
21244;DHT22;10780;50.942;4.028;2022-09-20T06:15:30;11.90;99.90
21244;DHT22;10780;50.942;4.028;2022-09-20T06:18:24;11.80;99.90
21244;DHT22;10780;50.942;4.028;2022-09-20T06:23:44;11.80;99.90
21244;DHT22;10780;50.942;4.028;2022-09-20T06:26:22;11.90;99.90
21244;DHT22;10780;50.942;4.028;2022-09-20T06:28:53;12.00;99.90
21244;DHT22;10780;50.942;4.028;2022-09-20T06:31:20;11.90;99.90
21244;DHT22;10780;50.942;4.028;2022-09-20T06:34:19;12.00;99.90
21244;DHT22;10780;50.942;4.028;2022-09-20T06:37:30;12.10;99.90
21244;DHT22;10780;50.942;4.028;2022-09-20T06:43:13;12.40;99.90
21244;DHT22;10780;50.942;4.028;2022-09-20T06:45:40;12.40;99.90
21244;DHT22;10780;50.942;4.028;2022-09-20T06:48:07;12.40;99.90
21244;DHT22;10780;50.942;4.028;2022-09-20T06:50:40;12.40;99.90
21244;DHT22;10780;50.942;4.028;2022-09-20T06:53:16;12.40;99.90
21244;DHT22;10780;50.942;4.028;2022-09-20T06:55:43;12.30;99.90
21244;DHT22;10780;50.942;4.028;2022-09-20T06:58:10;12.20;99.90
21244;DHT22;10780;50.942;4.028;2022-09-20T07:00:36;12.30;99.90
21244;DHT22;10780;50.942;4.028;2022-09-20T07:03:04;12.30;99.90
21244;DHT22;10780;50.942;4.028;2022-09-20T07:05:30;12.30;99.90
21244;DHT22;10780;50.942;4.028;2022-09-20T07:07:57;12.40;99.90
21244;DHT22;10780;50.942;4.028;2022-09-20T07:10:26;12.40;99.90
21244;DHT22;10780;50.942;4.028;2022-09-20T07:12:56;12.40;99.90
21244;DHT22;10780;50.942;4.028;2022-09-20T07:15:22;12.40;99.90
21244;DHT22;10780;50.942;4.028;2022-09-20T07:17:49;12.50;99.90
21244;DHT22;10780;50.942;4.028;2022-09-20T07:20:15;12.70;99.90
21244;DHT22;10780;50.942;4.028;2022-09-20T07:22:41;12.90;99.90
21244;DHT22;10780;50.942;4.028;2022-09-20T07:25:07;13.00;99.90
21244;DHT22;10780;50.942;4.028;2022-09-20T07:27:33;13.10;99.90
21244;DHT22;10780;50.942;4.028;2022-09-20T07:29:59;13.10;99.90
21244;DHT22;10780;50.942;4.028;2022-09-20T07:32:24;13.20;99.90
21244;DHT22;10780;50.942;4.028;2022-09-20T07:34:51;13.40;99.90
21244;DHT22;10780;50.942;4.028;2022-09-20T07:37:17;13.40;99.90
21244;DHT22;10780;50.942;4.028;2022-09-20T07:39:44;13.40;99.90
21244;DHT22;10780;50.942;4.028;2022-09-20T07:42:11;13.50;99.90
21244;DHT22;10780;50.942;4.028;2022-09-20T07:44:36;13.40;99.90
21244;DHT22;10780;50.942;4.028;2022-09-20T07:47:05;13.50;99.90
21244;DHT22;10780;50.942;4.028;2022-09-20T07:49:31;13.60;99.90
21244;DHT22;10780;50.942;4.028;2022-09-20T07:51:57;13.70;99.90
21244;DHT22;10780;50.942;4.028;2022-09-20T07:54:23;13.90;99.90
21244;DHT22;10780;50.942;4.028;2022-09-20T07:56:48;14.10;99.90
21244;DHT22;10780;50.942;4.028;2022-09-20T07:59:14;14.30;99.90
21244;DHT22;10780;50.942;4.028;2022-09-20T08:01:41;14.20;99.90
21244;DHT22;10780;50.942;4.028;2022-09-20T08:04:08;14.40;99.90
21244;DHT22;10780;50.942;4.028;2022-09-20T08:06:42;14.70;99.90
21244;DHT22;10780;50.942;4.028;2022-09-20T08:09:09;15.00;99.90
21244;DHT22;10780;50.942;4.028;2022-09-20T08:11:35;15.10;99.90
21244;DHT22;10780;50.942;4.028;2022-09-20T08:14:01;15.40;99.90
21244;DHT22;10780;50.942;4.028;2022-09-20T08:16:28;15.60;99.90
21244;DHT22;10780;50.942;4.028;2022-09-20T08:18:57;15.60;99.90
21244;DHT22;10780;50.942;4.028;2022-09-20T08:21:29;15.70;99.90
21244;DHT22;10780;50.942;4.028;2022-09-20T08:23:56;15.90;99.90
21244;DHT22;10780;50.942;4.028;2022-09-20T08:26:23;16.00;99.90
21244;DHT22;10780;50.942;4.028;2022-09-20T08:28:55;16.00;99.90
21244;DHT22;10780;50.942;4.028;2022-09-20T08:31:23;15.80;99.90
21244;DHT22;10780;50.942;4.028;2022-09-20T08:33:49;15.80;99.90
21244;DHT22;10780;50.942;4.028;2022-09-20T08:36:18;15.80;99.90
21244;DHT22;10780;50.942;4.028;2022-09-20T08:38:44;15.80;99.90
21244;DHT22;10780;50.942;4.028;2022-09-20T08:46:18;15.20;99.90
21244;DHT22;10780;50.942;4.028;2022-09-20T08:48:45;15.20;99.90
21244;DHT22;10780;50.942;4.028;2022-09-20T08:51:13;15.30;99.90
21244;DHT22;10780;50.942;4.028;2022-09-20T08:53:51;15.50;99.90
21244;DHT22;10780;50.942;4.028;2022-09-20T08:56:17;15.70;99.90
21244;DHT22;10780;50.942;4.028;2022-09-20T08:58:44;16.00;99.90
21244;DHT22;10780;50.942;4.028;2022-09-20T09:01:20;15.90;99.90
21244;DHT22;10780;50.942;4.028;2022-09-20T09:03:48;16.00;99.90
21244;DHT22;10780;50.942;4.028;2022-09-20T09:06:17;16.00;99.90
21244;DHT22;10780;50.942;4.028;2022-09-20T09:08:43;16.20;99.90
21244;DHT22;10780;50.942;4.028;2022-09-20T09:11:13;16.10;99.90
21244;DHT22;10780;50.942;4.028;2022-09-20T09:14:04;16.20;99.90
21244;DHT22;10780;50.942;4.028;2022-09-20T09:16:51;16.50;99.90
21244;DHT22;10780;50.942;4.028;2022-09-20T09:19:32;16.70;99.90
21244;DHT22;10780;50.942;4.028;2022-09-20T09:22:08;17.00;99.90
21244;DHT22;10780;50.942;4.028;2022-09-20T09:24:34;17.20;99.90
21244;DHT22;10780;50.942;4.028;2022-09-20T09:27:17;17.40;99.90
21244;DHT22;10780;50.942;4.028;2022-09-20T09:30:01;17.50;99.90
21244;DHT22;10780;50.942;4.028;2022-09-20T09:32:43;17.70;99.90
21244;DHT22;10780;50.942;4.028;2022-09-20T09:35:26;17.80;99.90
21244;DHT22;10780;50.942;4.028;2022-09-20T09:37:59;17.90;99.90
21244;DHT22;10780;50.942;4.028;2022-09-20T09:40:29;18.00;99.90
21244;DHT22;10780;50.942;4.028;2022-09-20T09:43:00;17.80;99.90
21244;DHT22;10780;50.942;4.028;2022-09-20T09:45:30;17.60;99.90
21244;DHT22;10780;50.942;4.028;2022-09-20T09:47:58;17.90;99.90
21244;DHT22;10780;50.942;4.028;2022-09-20T09:50:27;17.80;99.90
21244;DHT22;10780;50.942;4.028;2022-09-20T09:53:22;17.90;99.90
21244;DHT22;10780;50.942;4.028;2022-09-20T09:56:19;17.70;99.90
21244;DHT22;10780;50.942;4.028;2022-09-20T10:02:33;17.60;99.90
21244;DHT22;10780;50.942;4.028;2022-09-20T10:05:37;17.50;99.90
21244;DHT22;10780;50.942;4.028;2022-09-20T10:14:26;17.40;99.90
21244;DHT22;10780;50.942;4.028;2022-09-20T10:25:06;17.60;99.90
21244;DHT22;10780;50.942;4.028;2022-09-20T10:30:26;16.60;99.90
21244;DHT22;10780;50.942;4.028;2022-09-20T10:33:09;16.30;99.90
21244;DHT22;10780;50.942;4.028;2022-09-20T10:35:52;16.30;99.90
21244;DHT22;10780;50.942;4.028;2022-09-20T10:38:42;16.50;99.90
21244;DHT22;10780;50.942;4.028;2022-09-20T10:44:54;16.70;99.90
21244;DHT22;10780;50.942;4.028;2022-09-20T10:47:30;17.20;99.90
21244;DHT22;10780;50.942;4.028;2022-09-20T10:50:23;17.30;99.90
21244;DHT22;10780;50.942;4.028;2022-09-20T10:55:55;18.10;99.90
21244;DHT22;10780;50.942;4.028;2022-09-20T11:01:13;17.60;99.90
21244;DHT22;10780;50.942;4.028;2022-09-20T11:09:06;17.10;99.90
21244;DHT22;10780;50.942;4.028;2022-09-20T11:11:42;17.00;99.90
21244;DHT22;10780;50.942;4.028;2022-09-20T11:14:13;17.10;99.90
21244;DHT22;10780;50.942;4.028;2022-09-20T11:22:21;17.50;99.90
21244;DHT22;10780;50.942;4.028;2022-09-20T11:24:57;17.50;99.90
21244;DHT22;10780;50.942;4.028;2022-09-20T11:27:50;17.30;99.90
21244;DHT22;10780;50.942;4.028;2022-09-20T11:30:19;17.40;99.90
21244;DHT22;10780;50.942;4.028;2022-09-20T11:40:56;17.80;99.90
21244;DHT22;10780;50.942;4.028;2022-09-20T11:43:25;18.00;99.90
21244;DHT22;10780;50.942;4.028;2022-09-20T11:46:00;18.00;99.90
21244;DHT22;10780;50.942;4.028;2022-09-20T11:48:55;18.10;99.90
21244;DHT22;10780;50.942;4.028;2022-09-20T11:51:31;18.70;99.90
21244;DHT22;10780;50.942;4.028;2022-09-20T11:54:15;19.50;99.90
21244;DHT22;10780;50.942;4.028;2022-09-20T11:56:53;19.50;99.90
21244;DHT22;10780;50.942;4.028;2022-09-20T11:59:32;19.00;99.90
21244;DHT22;10780;50.942;4.028;2022-09-20T12:01:59;19.30;99.90
21244;DHT22;10780;50.942;4.028;2022-09-20T12:04:33;19.60;99.90
21244;DHT22;10780;50.942;4.028;2022-09-20T12:07:14;19.60;99.90
21244;DHT22;10780;50.942;4.028;2022-09-20T12:09:43;19.50;99.90
21244;DHT22;10780;50.942;4.028;2022-09-20T12:12:30;19.60;99.90
21244;DHT22;10780;50.942;4.028;2022-09-20T12:14:58;19.20;99.90
21244;DHT22;10780;50.942;4.028;2022-09-20T12:18:05;19.20;99.90
21244;DHT22;10780;50.942;4.028;2022-09-20T12:28:56;18.30;99.90
21244;DHT22;10780;50.942;4.028;2022-09-20T12:39:38;16.70;99.90
21244;DHT22;10780;50.942;4.028;2022-09-20T12:42:26;16.60;99.90
21244;DHT22;10780;50.942;4.028;2022-09-20T12:45:05;16.50;99.90
21244;DHT22;10780;50.942;4.028;2022-09-20T12:47:50;16.50;99.90
21244;DHT22;10780;50.942;4.028;2022-09-20T12:50:17;16.40;99.90
21244;DHT22;10780;50.942;4.028;2022-09-20T12:53:13;16.00;99.90
21244;DHT22;10780;50.942;4.028;2022-09-20T12:55:42;15.70;99.90
21244;DHT22;10780;50.942;4.028;2022-09-20T13:00:48;15.20;99.90
21244;DHT22;10780;50.942;4.028;2022-09-20T13:06:20;15.10;99.90
21244;DHT22;10780;50.942;4.028;2022-09-20T13:09:01;15.20;99.90
21244;DHT22;10780;50.942;4.028;2022-09-20T13:11:40;14.90;99.90
21244;DHT22;10780;50.942;4.028;2022-09-20T13:14:35;15.00;99.90
21244;DHT22;10780;50.942;4.028;2022-09-20T13:17:20;15.00;99.90
21244;DHT22;10780;50.942;4.028;2022-09-20T13:19:49;15.10;99.90
21244;DHT22;10780;50.942;4.028;2022-09-20T13:24:59;15.50;99.90
21244;DHT22;10780;50.942;4.028;2022-09-20T13:27:34;15.50;99.90
21244;DHT22;10780;50.942;4.028;2022-09-20T13:30:20;15.60;99.90
21244;DHT22;10780;50.942;4.028;2022-09-20T13:32:47;15.70;99.90
21244;DHT22;10780;50.942;4.028;2022-09-20T13:35:15;15.90;99.90
21244;DHT22;10780;50.942;4.028;2022-09-20T13:37:51;16.00;99.90
21244;DHT22;10780;50.942;4.028;2022-09-20T13:43:02;16.30;99.90
21244;DHT22;10780;50.942;4.028;2022-09-20T13:45:29;16.20;99.90
21244;DHT22;10780;50.942;4.028;2022-09-20T13:47:59;16.40;99.90
21244;DHT22;10780;50.942;4.028;2022-09-20T13:50:31;16.40;99.90
21244;DHT22;10780;50.942;4.028;2022-09-20T13:53:02;16.60;99.90
21244;DHT22;10780;50.942;4.028;2022-09-20T13:55:38;16.70;99.90
21244;DHT22;10780;50.942;4.028;2022-09-20T14:00:58;17.10;99.90
21244;DHT22;10780;50.942;4.028;2022-09-20T14:03:26;17.00;99.90
21244;DHT22;10780;50.942;4.028;2022-09-20T14:05:55;16.90;99.90
21244;DHT22;10780;50.942;4.028;2022-09-20T14:08:34;17.00;99.90
21244;DHT22;10780;50.942;4.028;2022-09-20T14:11:20;17.20;99.90
21244;DHT22;10780;50.942;4.028;2022-09-20T14:13:51;17.30;99.90
21244;DHT22;10780;50.942;4.028;2022-09-20T14:16:17;17.40;99.90
21244;DHT22;10780;50.942;4.028;2022-09-20T14:18:46;17.60;99.90
21244;DHT22;10780;50.942;4.028;2022-09-20T14:21:15;17.50;99.90
21244;DHT22;10780;50.942;4.028;2022-09-20T14:23:55;17.70;99.90
21244;DHT22;10780;50.942;4.028;2022-09-20T14:26:29;17.90;99.90
21244;DHT22;10780;50.942;4.028;2022-09-20T14:28:55;17.80;99.90
21244;DHT22;10780;50.942;4.028;2022-09-20T14:31:30;17.80;99.90
21244;DHT22;10780;50.942;4.028;2022-09-20T14:33:59;17.40;99.90
21244;DHT22;10780;50.942;4.028;2022-09-20T14:36:27;17.70;99.90
21244;DHT22;10780;50.942;4.028;2022-09-20T14:39:00;17.80;99.90
21244;DHT22;10780;50.942;4.028;2022-09-20T14:41:35;18.00;99.90
21244;DHT22;10780;50.942;4.028;2022-09-20T14:44:02;18.40;99.90
21244;DHT22;10780;50.942;4.028;2022-09-20T14:46:34;18.50;99.90
21244;DHT22;10780;50.942;4.028;2022-09-20T14:49:20;19.40;99.90
21244;DHT22;10780;50.942;4.028;2022-09-20T14:55:21;19.20;99.90
21244;DHT22;10780;50.942;4.028;2022-09-20T14:57:56;18.70;99.90
21244;DHT22;10780;50.942;4.028;2022-09-20T15:00:23;18.60;99.90
21244;DHT22;10780;50.942;4.028;2022-09-20T15:02:49;18.50;99.90
21244;DHT22;10780;50.942;4.028;2022-09-20T15:05:21;18.40;99.90
21244;DHT22;10780;50.942;4.028;2022-09-20T15:07:48;18.10;99.90
21244;DHT22;10780;50.942;4.028;2022-09-20T15:10:14;17.50;99.90
21244;DHT22;10780;50.942;4.028;2022-09-20T15:12:40;17.60;99.90
21244;DHT22;10780;50.942;4.028;2022-09-20T15:15:11;17.60;99.90
21244;DHT22;10780;50.942;4.028;2022-09-20T15:17:40;17.30;99.90
21244;DHT22;10780;50.942;4.028;2022-09-20T15:20:13;17.30;99.90
21244;DHT22;10780;50.942;4.028;2022-09-20T15:22:39;17.40;99.90
21244;DHT22;10780;50.942;4.028;2022-09-20T15:25:05;17.40;99.90
21244;DHT22;10780;50.942;4.028;2022-09-20T15:27:31;17.40;99.90
21244;DHT22;10780;50.942;4.028;2022-09-20T15:29:57;17.10;99.90
21244;DHT22;10780;50.942;4.028;2022-09-20T15:32:22;16.80;99.90
21244;DHT22;10780;50.942;4.028;2022-09-20T15:34:48;16.60;99.90
21244;DHT22;10780;50.942;4.028;2022-09-20T15:37:14;16.70;99.90
21244;DHT22;10780;50.942;4.028;2022-09-20T15:39:39;16.90;99.90
21244;DHT22;10780;50.942;4.028;2022-09-20T15:42:05;17.00;99.90
21244;DHT22;10780;50.942;4.028;2022-09-20T15:44:31;17.10;99.90
21244;DHT22;10780;50.942;4.028;2022-09-20T15:46:57;17.20;99.90
21244;DHT22;10780;50.942;4.028;2022-09-20T15:49:22;17.10;99.90
21244;DHT22;10780;50.942;4.028;2022-09-20T15:51:48;16.90;99.90
21244;DHT22;10780;50.942;4.028;2022-09-20T15:54:14;16.80;99.90
21244;DHT22;10780;50.942;4.028;2022-09-20T15:56:40;16.90;99.90
21244;DHT22;10780;50.942;4.028;2022-09-20T15:59:07;16.90;99.90
21244;DHT22;10780;50.942;4.028;2022-09-20T16:01:40;17.10;99.90
21244;DHT22;10780;50.942;4.028;2022-09-20T16:04:11;17.00;99.90
21244;DHT22;10780;50.942;4.028;2022-09-20T16:06:39;16.80;99.90
21244;DHT22;10780;50.942;4.028;2022-09-20T16:09:06;16.70;99.90
21244;DHT22;10780;50.942;4.028;2022-09-20T16:11:32;16.60;99.90
21244;DHT22;10780;50.942;4.028;2022-09-20T16:13:59;16.30;99.90
21244;DHT22;10780;50.942;4.028;2022-09-20T16:16:26;16.10;99.90
21244;DHT22;10780;50.942;4.028;2022-09-20T16:18:52;16.00;99.90
21244;DHT22;10780;50.942;4.028;2022-09-20T16:21:39;15.80;99.90
21244;DHT22;10780;50.942;4.028;2022-09-20T16:24:05;15.80;99.90
21244;DHT22;10780;50.942;4.028;2022-09-20T16:26:31;15.80;99.90
21244;DHT22;10780;50.942;4.028;2022-09-20T16:28:59;15.80;99.90
21244;DHT22;10780;50.942;4.028;2022-09-20T16:31:44;15.70;99.90
21244;DHT22;10780;50.942;4.028;2022-09-20T16:34:19;15.70;99.90
21244;DHT22;10780;50.942;4.028;2022-09-20T16:36:46;15.90;99.90
21244;DHT22;10780;50.942;4.028;2022-09-20T16:39:14;16.10;99.90
21244;DHT22;10780;50.942;4.028;2022-09-20T16:41:41;16.10;99.90
21244;DHT22;10780;50.942;4.028;2022-09-20T16:44:07;16.10;99.90
21244;DHT22;10780;50.942;4.028;2022-09-20T16:46:33;16.20;99.90
21244;DHT22;10780;50.942;4.028;2022-09-20T16:49:07;16.30;99.90
21244;DHT22;10780;50.942;4.028;2022-09-20T16:51:38;16.40;99.90
21244;DHT22;10780;50.942;4.028;2022-09-20T16:54:06;16.30;99.90
21244;DHT22;10780;50.942;4.028;2022-09-20T16:56:38;16.30;99.90
21244;DHT22;10780;50.942;4.028;2022-09-20T16:59:05;16.30;99.90
21244;DHT22;10780;50.942;4.028;2022-09-20T17:01:32;16.30;99.90
21244;DHT22;10780;50.942;4.028;2022-09-20T17:03:58;16.50;99.90
21244;DHT22;10780;50.942;4.028;2022-09-20T17:06:25;16.50;99.90
21244;DHT22;10780;50.942;4.028;2022-09-20T17:08:55;16.20;99.90
21244;DHT22;10780;50.942;4.028;2022-09-20T17:11:25;16.00;99.90
21244;DHT22;10780;50.942;4.028;2022-09-20T17:13:52;16.10;99.90
21244;DHT22;10780;50.942;4.028;2022-09-20T17:16:29;16.20;99.90
21244;DHT22;10780;50.942;4.028;2022-09-20T17:19:04;16.00;99.90
21244;DHT22;10780;50.942;4.028;2022-09-20T17:21:34;16.00;99.90
21244;DHT22;10780;50.942;4.028;2022-09-20T17:24:01;16.10;99.90
21244;DHT22;10780;50.942;4.028;2022-09-20T17:26:32;16.00;99.90
21244;DHT22;10780;50.942;4.028;2022-09-20T17:29:00;16.00;99.90
21244;DHT22;10780;50.942;4.028;2022-09-20T17:31:31;15.90;99.90
21244;DHT22;10780;50.942;4.028;2022-09-20T17:34:02;16.00;99.90
21244;DHT22;10780;50.942;4.028;2022-09-20T17:36:30;16.00;99.90
21244;DHT22;10780;50.942;4.028;2022-09-20T17:38:58;15.90;99.90
21244;DHT22;10780;50.942;4.028;2022-09-20T17:41:25;15.70;99.90
21244;DHT22;10780;50.942;4.028;2022-09-20T17:43:53;15.40;99.90
21244;DHT22;10780;50.942;4.028;2022-09-20T17:46:21;15.20;99.90
21244;DHT22;10780;50.942;4.028;2022-09-20T17:48:53;14.90;99.90
21244;DHT22;10780;50.942;4.028;2022-09-20T17:51:22;14.60;99.90
21244;DHT22;10780;50.942;4.028;2022-09-20T17:53:49;14.60;99.90
21244;DHT22;10780;50.942;4.028;2022-09-20T17:56:15;14.60;99.90
21244;DHT22;10780;50.942;4.028;2022-09-20T17:58:41;14.70;99.90
21244;DHT22;10780;50.942;4.028;2022-09-20T18:01:10;14.60;99.90
21244;DHT22;10780;50.942;4.028;2022-09-20T18:03:37;14.50;99.90
21244;DHT22;10780;50.942;4.028;2022-09-20T18:06:15;14.60;99.90
21244;DHT22;10780;50.942;4.028;2022-09-20T18:08:45;14.60;99.90
21244;DHT22;10780;50.942;4.028;2022-09-20T18:11:12;14.50;99.90
21244;DHT22;10780;50.942;4.028;2022-09-20T18:13:37;14.40;99.90
21244;DHT22;10780;50.942;4.028;2022-09-20T18:16:07;14.50;99.90
21244;DHT22;10780;50.942;4.028;2022-09-20T18:18:33;14.50;99.90
21244;DHT22;10780;50.942;4.028;2022-09-20T18:20:58;14.50;99.90
21244;DHT22;10780;50.942;4.028;2022-09-20T18:23:25;14.30;99.90
21244;DHT22;10780;50.942;4.028;2022-09-20T18:25:50;14.20;99.90
21244;DHT22;10780;50.942;4.028;2022-09-20T18:28:34;14.10;99.90
21244;DHT22;10780;50.942;4.028;2022-09-20T18:31:03;13.80;99.90
21244;DHT22;10780;50.942;4.028;2022-09-20T18:33:30;13.70;99.90
21244;DHT22;10780;50.942;4.028;2022-09-20T18:36:04;13.70;99.90
21244;DHT22;10780;50.942;4.028;2022-09-20T18:38:30;13.70;99.90
21244;DHT22;10780;50.942;4.028;2022-09-20T18:40:58;13.70;99.90
21244;DHT22;10780;50.942;4.028;2022-09-20T18:43:28;13.70;99.90
21244;DHT22;10780;50.942;4.028;2022-09-20T18:45:56;13.90;99.90
21244;DHT22;10780;50.942;4.028;2022-09-20T18:48:22;13.90;99.90
21244;DHT22;10780;50.942;4.028;2022-09-20T18:51:00;13.80;99.90
21244;DHT22;10780;50.942;4.028;2022-09-20T18:53:35;13.60;99.90
21244;DHT22;10780;50.942;4.028;2022-09-20T18:58:52;13.60;99.90
21244;DHT22;10780;50.942;4.028;2022-09-20T19:04:33;13.60;99.90
21244;DHT22;10780;50.942;4.028;2022-09-20T19:10:18;13.30;99.90
21244;DHT22;10780;50.942;4.028;2022-09-20T19:13:03;13.20;99.90
21244;DHT22;10780;50.942;4.028;2022-09-20T19:21:30;13.10;99.90
21244;DHT22;10780;50.942;4.028;2022-09-20T19:26:48;13.10;99.90
21244;DHT22;10780;50.942;4.028;2022-09-20T19:29:26;13.10;99.90
21244;DHT22;10780;50.942;4.028;2022-09-20T19:31:56;13.10;99.90
21244;DHT22;10780;50.942;4.028;2022-09-20T19:34:29;13.10;99.90
21244;DHT22;10780;50.942;4.028;2022-09-20T19:37:17;13.10;99.90
21244;DHT22;10780;50.942;4.028;2022-09-20T19:40:02;13.10;99.90
21244;DHT22;10780;50.942;4.028;2022-09-20T19:47:55;13.00;99.90
21244;DHT22;10780;50.942;4.028;2022-09-20T19:50:37;13.00;99.90
21244;DHT22;10780;50.942;4.028;2022-09-20T19:53:05;13.00;99.90
21244;DHT22;10780;50.942;4.028;2022-09-20T19:55:33;12.90;99.90
21244;DHT22;10780;50.942;4.028;2022-09-20T19:57:59;12.80;99.90
21244;DHT22;10780;50.942;4.028;2022-09-20T20:00:26;12.80;99.90
21244;DHT22;10780;50.942;4.028;2022-09-20T20:02:52;12.70;99.90
21244;DHT22;10780;50.942;4.028;2022-09-20T20:05:20;12.70;99.90
21244;DHT22;10780;50.942;4.028;2022-09-20T20:10:46;12.70;99.90
21244;DHT22;10780;50.942;4.028;2022-09-20T20:16:14;12.70;99.90
21244;DHT22;10780;50.942;4.028;2022-09-20T20:19:07;12.70;99.90
21244;DHT22;10780;50.942;4.028;2022-09-20T20:22:05;12.80;99.90
21244;DHT22;10780;50.942;4.028;2022-09-20T20:24:52;12.80;99.90
21244;DHT22;10780;50.942;4.028;2022-09-20T20:27:19;12.80;99.90
21244;DHT22;10780;50.942;4.028;2022-09-20T20:29:44;12.80;99.90
21244;DHT22;10780;50.942;4.028;2022-09-20T20:32:10;12.60;99.90
21244;DHT22;10780;50.942;4.028;2022-09-20T20:34:36;12.50;99.90
21244;DHT22;10780;50.942;4.028;2022-09-20T20:37:03;12.50;99.90
21244;DHT22;10780;50.942;4.028;2022-09-20T20:39:29;12.40;99.90
21244;DHT22;10780;50.942;4.028;2022-09-20T20:41:57;12.40;99.90
21244;DHT22;10780;50.942;4.028;2022-09-20T20:44:26;12.50;99.90
21244;DHT22;10780;50.942;4.028;2022-09-20T20:46:52;12.50;99.90
21244;DHT22;10780;50.942;4.028;2022-09-20T20:49:17;12.40;99.90
21244;DHT22;10780;50.942;4.028;2022-09-20T20:51:43;12.30;99.90
21244;DHT22;10780;50.942;4.028;2022-09-20T20:54:09;12.30;99.90
21244;DHT22;10780;50.942;4.028;2022-09-20T20:56:35;12.20;99.90